Terminal Aerodrome Forecast
Issued by NWS

Home | Current Version | Previous Version | Text Only | Print | Product List | Glossary On
Versions: 1 2 3 4 5 6 7 8 9 10 11 12 13 14 15 16 17 18 19 20 21 22 23 24 25 26 27 28 29 30 31 32 33 34 35 36 37 38
000
FTUS45 KLKN 281312 AAA
TAFELY
TAF AMD
KELY 281312Z 2813/2912 28006KT P6SM VCSH BKN025
     FM281800 01006KT P6SM BKN030
     FM290200 17007KT P6SM SCT030 BKN170
     FM290600 17007KT P6SM OVC150=

USA.gov is the U.S. government's official web portal to all federal, state and local government web resources and services.